sensor_id;sensor_type;location;lat;lon;timestamp;P1;durP1;ratioP1;P2;durP2;ratioP2
44728;SDS011;30457;53.590;9.922;2022-08-05T00:03:41;7.45;;;3.42;;
44728;SDS011;30457;53.590;9.922;2022-08-05T00:08:08;4.20;;;3.05;;
44728;SDS011;30457;53.590;9.922;2022-08-05T00:12:33;4.25;;;2.80;;
44728;SDS011;30457;53.590;9.922;2022-08-05T00:16:59;5.43;;;2.83;;
44728;SDS011;30457;53.590;9.922;2022-08-05T00:21:24;4.05;;;2.40;;
44728;SDS011;30457;53.590;9.922;2022-08-05T00:25:50;5.38;;;2.40;;
44728;SDS011;30457;53.590;9.922;2022-08-05T00:30:16;5.25;;;2.17;;
44728;SDS011;30457;53.590;9.922;2022-08-05T00:34:42;1.85;;;1.60;;
44728;SDS011;30457;53.590;9.922;2022-08-05T00:39:08;4.20;;;1.50;;
44728;SDS011;30457;53.590;9.922;2022-08-05T00:43:34;3.97;;;1.90;;
44728;SDS011;30457;53.590;9.922;2022-08-05T00:48:00;2.13;;;1.50;;
44728;SDS011;30457;53.590;9.922;2022-08-05T00:52:26;2.67;;;1.80;;
44728;SDS011;30457;53.590;9.922;2022-08-05T00:56:52;2.30;;;1.40;;
44728;SDS011;30457;53.590;9.922;2022-08-05T01:01:17;4.07;;;1.77;;
44728;SDS011;30457;53.590;9.922;2022-08-05T01:05:43;3.65;;;1.63;;
44728;SDS011;30457;53.590;9.922;2022-08-05T01:10:09;1.67;;;1.38;;
44728;SDS011;30457;53.590;9.922;2022-08-05T01:14:39;1.70;;;1.30;;
44728;SDS011;30457;53.590;9.922;2022-08-05T01:19:18;4.60;;;1.55;;
44728;SDS011;30457;53.590;9.922;2022-08-05T01:24:09;4.03;;;1.20;;
44728;SDS011;30457;53.590;9.922;2022-08-05T01:28:57;2.28;;;1.50;;
44728;SDS011;30457;53.590;9.922;2022-08-05T01:38:14;6.80;;;1.30;;
44728;SDS011;30457;53.590;9.922;2022-08-05T01:42:41;1.92;;;1.40;;
44728;SDS011;30457;53.590;9.922;2022-08-05T01:47:09;3.85;;;1.33;;
44728;SDS011;30457;53.590;9.922;2022-08-05T01:51:35;5.45;;;1.75;;
44728;SDS011;30457;53.590;9.922;2022-08-05T01:56:02;3.13;;;1.00;;
44728;SDS011;30457;53.590;9.922;2022-08-05T02:00:29;4.25;;;1.27;;
44728;SDS011;30457;53.590;9.922;2022-08-05T02:04:58;2.88;;;1.27;;
44728;SDS011;30457;53.590;9.922;2022-08-05T02:09:30;4.88;;;1.35;;
44728;SDS011;30457;53.590;9.922;2022-08-05T02:14:08;2.72;;;1.45;;
44728;SDS011;30457;53.590;9.922;2022-08-05T02:18:41;3.72;;;1.42;;
44728;SDS011;30457;53.590;9.922;2022-08-05T02:23:11;1.90;;;1.27;;
44728;SDS011;30457;53.590;9.922;2022-08-05T02:27:39;1.40;;;0.98;;
44728;SDS011;30457;53.590;9.922;2022-08-05T02:32:07;1.75;;;1.30;;
44728;SDS011;30457;53.590;9.922;2022-08-05T02:36:35;2.25;;;1.33;;
44728;SDS011;30457;53.590;9.922;2022-08-05T02:41:07;2.60;;;1.52;;
44728;SDS011;30457;53.590;9.922;2022-08-05T02:45:34;3.60;;;1.58;;
44728;SDS011;30457;53.590;9.922;2022-08-05T02:50:01;7.07;;;1.90;;
44728;SDS011;30457;53.590;9.922;2022-08-05T02:54:28;3.70;;;1.60;;
44728;SDS011;30457;53.590;9.922;2022-08-05T02:58:55;4.13;;;1.70;;
44728;SDS011;30457;53.590;9.922;2022-08-05T03:03:21;2.10;;;1.02;;
44728;SDS011;30457;53.590;9.922;2022-08-05T03:07:47;5.30;;;2.50;;
44728;SDS011;30457;53.590;9.922;2022-08-05T03:12:30;2.03;;;1.30;;
44728;SDS011;30457;53.590;9.922;2022-08-05T03:16:59;2.35;;;1.30;;
44728;SDS011;30457;53.590;9.922;2022-08-05T03:21:24;5.72;;;3.10;;
44728;SDS011;30457;53.590;9.922;2022-08-05T03:25:50;2.58;;;1.38;;
44728;SDS011;30457;53.590;9.922;2022-08-05T03:30:16;3.58;;;1.90;;
44728;SDS011;30457;53.590;9.922;2022-08-05T03:34:42;2.70;;;1.55;;
44728;SDS011;30457;53.590;9.922;2022-08-05T03:39:08;1.40;;;1.20;;
44728;SDS011;30457;53.590;9.922;2022-08-05T03:43:34;1.77;;;1.40;;
44728;SDS011;30457;53.590;9.922;2022-08-05T03:48:00;2.05;;;1.40;;
44728;SDS011;30457;53.590;9.922;2022-08-05T03:52:27;4.38;;;1.67;;
44728;SDS011;30457;53.590;9.922;2022-08-05T03:56:57;2.47;;;1.30;;
44728;SDS011;30457;53.590;9.922;2022-08-05T04:01:24;2.95;;;1.83;;
44728;SDS011;30457;53.590;9.922;2022-08-05T04:05:52;2.13;;;1.50;;
44728;SDS011;30457;53.590;9.922;2022-08-05T04:10:19;2.45;;;1.38;;
44728;SDS011;30457;53.590;9.922;2022-08-05T04:14:45;3.65;;;1.65;;
44728;SDS011;30457;53.590;9.922;2022-08-05T04:19:11;2.85;;;1.80;;
44728;SDS011;30457;53.590;9.922;2022-08-05T04:23:37;4.20;;;1.70;;
44728;SDS011;30457;53.590;9.922;2022-08-05T04:28:03;5.45;;;1.63;;
44728;SDS011;30457;53.590;9.922;2022-08-05T04:32:29;3.75;;;1.92;;
44728;SDS011;30457;53.590;9.922;2022-08-05T04:36:54;5.72;;;1.50;;
44728;SDS011;30457;53.590;9.922;2022-08-05T04:41:20;3.58;;;1.60;;
44728;SDS011;30457;53.590;9.922;2022-08-05T04:45:45;3.72;;;1.60;;
44728;SDS011;30457;53.590;9.922;2022-08-05T04:50:11;2.55;;;1.30;;
44728;SDS011;30457;53.590;9.922;2022-08-05T04:54:36;2.13;;;1.80;;
44728;SDS011;30457;53.590;9.922;2022-08-05T04:59:02;2.75;;;1.83;;
44728;SDS011;30457;53.590;9.922;2022-08-05T05:03:28;3.42;;;2.20;;
44728;SDS011;30457;53.590;9.922;2022-08-05T05:07:54;4.22;;;2.03;;
44728;SDS011;30457;53.590;9.922;2022-08-05T05:12:33;4.30;;;1.70;;
44728;SDS011;30457;53.590;9.922;2022-08-05T05:16:59;2.08;;;1.65;;
44728;SDS011;30457;53.590;9.922;2022-08-05T05:21:25;2.05;;;1.77;;
44728;SDS011;30457;53.590;9.922;2022-08-05T05:25:50;3.47;;;1.80;;
44728;SDS011;30457;53.590;9.922;2022-08-05T05:30:16;4.63;;;2.17;;
44728;SDS011;30457;53.590;9.922;2022-08-05T05:34:42;3.22;;;1.98;;
44728;SDS011;30457;53.590;9.922;2022-08-05T05:39:07;4.22;;;2.10;;
44728;SDS011;30457;53.590;9.922;2022-08-05T05:43:33;2.78;;;1.90;;
44728;SDS011;30457;53.590;9.922;2022-08-05T05:47:58;5.85;;;2.22;;
44728;SDS011;30457;53.590;9.922;2022-08-05T05:52:24;3.70;;;2.30;;
44728;SDS011;30457;53.590;9.922;2022-08-05T05:56:50;2.15;;;1.95;;
44728;SDS011;30457;53.590;9.922;2022-08-05T06:01:15;3.55;;;2.70;;
44728;SDS011;30457;53.590;9.922;2022-08-05T06:05:41;2.65;;;1.90;;
44728;SDS011;30457;53.590;9.922;2022-08-05T06:10:07;5.05;;;2.08;;
44728;SDS011;30457;53.590;9.922;2022-08-05T06:14:34;2.50;;;2.17;;
44728;SDS011;30457;53.590;9.922;2022-08-05T06:19:00;1.55;;;1.42;;
44728;SDS011;30457;53.590;9.922;2022-08-05T06:23:25;3.90;;;2.38;;
44728;SDS011;30457;53.590;9.922;2022-08-05T06:27:51;5.03;;;1.83;;
44728;SDS011;30457;53.590;9.922;2022-08-05T06:32:16;2.97;;;2.70;;
44728;SDS011;30457;53.590;9.922;2022-08-05T06:36:42;3.70;;;2.38;;
44728;SDS011;30457;53.590;9.922;2022-08-05T06:41:08;2.85;;;1.98;;
44728;SDS011;30457;53.590;9.922;2022-08-05T06:45:34;4.18;;;2.10;;
44728;SDS011;30457;53.590;9.922;2022-08-05T06:49:59;3.00;;;1.80;;
44728;SDS011;30457;53.590;9.922;2022-08-05T06:54:25;2.25;;;1.60;;
44728;SDS011;30457;53.590;9.922;2022-08-05T06:58:50;2.42;;;1.80;;
44728;SDS011;30457;53.590;9.922;2022-08-05T07:03:16;2.17;;;1.70;;
44728;SDS011;30457;53.590;9.922;2022-08-05T07:07:41;6.90;;;1.70;;
44728;SDS011;30457;53.590;9.922;2022-08-05T07:12:09;3.85;;;1.92;;
44728;SDS011;30457;53.590;9.922;2022-08-05T07:16:54;1.85;;;1.52;;
44728;SDS011;30457;53.590;9.922;2022-08-05T07:21:24;2.72;;;1.50;;
44728;SDS011;30457;53.590;9.922;2022-08-05T07:25:50;1.55;;;1.20;;
44728;SDS011;30457;53.590;9.922;2022-08-05T07:30:15;2.13;;;1.60;;
44728;SDS011;30457;53.590;9.922;2022-08-05T07:34:41;2.63;;;1.40;;
44728;SDS011;30457;53.590;9.922;2022-08-05T07:39:07;1.85;;;1.30;;
44728;SDS011;30457;53.590;9.922;2022-08-05T07:43:33;2.42;;;1.27;;
44728;SDS011;30457;53.590;9.922;2022-08-05T07:47:58;3.05;;;1.48;;
44728;SDS011;30457;53.590;9.922;2022-08-05T07:52:24;1.05;;;1.02;;
44728;SDS011;30457;53.590;9.922;2022-08-05T07:56:49;1.38;;;1.27;;
44728;SDS011;30457;53.590;9.922;2022-08-05T08:01:16;2.33;;;1.40;;
44728;SDS011;30457;53.590;9.922;2022-08-05T08:05:42;2.65;;;1.40;;
44728;SDS011;30457;53.590;9.922;2022-08-05T08:10:08;3.63;;;1.38;;
44728;SDS011;30457;53.590;9.922;2022-08-05T08:14:33;2.58;;;1.38;;
44728;SDS011;30457;53.590;9.922;2022-08-05T08:18:59;1.77;;;1.30;;
44728;SDS011;30457;53.590;9.922;2022-08-05T08:23:24;3.20;;;1.70;;
44728;SDS011;30457;53.590;9.922;2022-08-05T08:27:50;2.63;;;1.60;;
44728;SDS011;30457;53.590;9.922;2022-08-05T08:32:15;4.82;;;1.63;;
44728;SDS011;30457;53.590;9.922;2022-08-05T08:36:41;3.47;;;1.23;;
44728;SDS011;30457;53.590;9.922;2022-08-05T08:41:06;2.78;;;1.02;;
44728;SDS011;30457;53.590;9.922;2022-08-05T08:45:34;3.53;;;1.63;;
44728;SDS011;30457;53.590;9.922;2022-08-05T08:50:02;3.30;;;1.27;;
44728;SDS011;30457;53.590;9.922;2022-08-05T08:54:28;1.58;;;1.10;;
44728;SDS011;30457;53.590;9.922;2022-08-05T08:58:54;3.22;;;1.35;;
44728;SDS011;30457;53.590;9.922;2022-08-05T09:03:23;2.97;;;1.35;;
44728;SDS011;30457;53.590;9.922;2022-08-05T09:07:49;3.72;;;1.40;;
44728;SDS011;30457;53.590;9.922;2022-08-05T09:12:16;1.77;;;1.48;;
44728;SDS011;30457;53.590;9.922;2022-08-05T09:16:42;4.72;;;1.30;;
44728;SDS011;30457;53.590;9.922;2022-08-05T09:21:07;1.73;;;1.38;;
44728;SDS011;30457;53.590;9.922;2022-08-05T09:25:33;3.10;;;1.85;;
44728;SDS011;30457;53.590;9.922;2022-08-05T09:29:59;3.15;;;1.38;;
44728;SDS011;30457;53.590;9.922;2022-08-05T09:34:24;6.15;;;2.10;;
44728;SDS011;30457;53.590;9.922;2022-08-05T09:38:57;3.10;;;1.60;;
44728;SDS011;30457;53.590;9.922;2022-08-05T09:43:27;3.58;;;1.40;;
44728;SDS011;30457;53.590;9.922;2022-08-05T09:47:57;2.50;;;1.40;;
44728;SDS011;30457;53.590;9.922;2022-08-05T09:52:27;2.30;;;1.50;;
44728;SDS011;30457;53.590;9.922;2022-08-05T09:56:57;2.60;;;1.30;;
44728;SDS011;30457;53.590;9.922;2022-08-05T10:01:23;1.38;;;1.25;;
44728;SDS011;30457;53.590;9.922;2022-08-05T10:06:08;2.00;;;1.40;;
44728;SDS011;30457;53.590;9.922;2022-08-05T10:10:44;1.95;;;1.00;;
44728;SDS011;30457;53.590;9.922;2022-08-05T10:15:17;1.58;;;1.48;;
44728;SDS011;30457;53.590;9.922;2022-08-05T10:19:50;4.05;;;1.42;;
44728;SDS011;30457;53.590;9.922;2022-08-05T10:24:16;4.32;;;1.50;;
44728;SDS011;30457;53.590;9.922;2022-08-05T10:28:43;2.45;;;1.10;;
44728;SDS011;30457;53.590;9.922;2022-08-05T10:33:10;1.85;;;1.30;;
44728;SDS011;30457;53.590;9.922;2022-08-05T10:37:36;2.17;;;1.70;;
44728;SDS011;30457;53.590;9.922;2022-08-05T10:42:06;4.85;;;1.52;;
44728;SDS011;30457;53.590;9.922;2022-08-05T10:55:41;3.15;;;1.05;;
44728;SDS011;30457;53.590;9.922;2022-08-05T11:00:33;1.38;;;1.05;;
44728;SDS011;30457;53.590;9.922;2022-08-05T11:04:58;3.25;;;1.10;;
44728;SDS011;30457;53.590;9.922;2022-08-05T11:09:46;3.08;;;1.05;;
44728;SDS011;30457;53.590;9.922;2022-08-05T11:14:22;1.42;;;0.90;;
44728;SDS011;30457;53.590;9.922;2022-08-05T11:19:21;2.90;;;1.40;;
44728;SDS011;30457;53.590;9.922;2022-08-05T11:23:51;1.92;;;1.10;;
44728;SDS011;30457;53.590;9.922;2022-08-05T11:32:43;2.55;;;1.45;;
44728;SDS011;30457;53.590;9.922;2022-08-05T11:37:08;4.22;;;2.05;;
44728;SDS011;30457;53.590;9.922;2022-08-05T11:41:34;2.92;;;1.55;;
44728;SDS011;30457;53.590;9.922;2022-08-05T11:46:00;2.95;;;1.50;;
44728;SDS011;30457;53.590;9.922;2022-08-05T11:50:26;3.83;;;1.45;;
44728;SDS011;30457;53.590;9.922;2022-08-05T11:54:52;3.55;;;1.52;;
44728;SDS011;30457;53.590;9.922;2022-08-05T11:59:20;2.15;;;1.77;;
44728;SDS011;30457;53.590;9.922;2022-08-05T12:03:52;4.47;;;1.38;;
44728;SDS011;30457;53.590;9.922;2022-08-05T12:08:19;2.90;;;1.38;;
44728;SDS011;30457;53.590;9.922;2022-08-05T12:12:45;1.83;;;0.93;;
44728;SDS011;30457;53.590;9.922;2022-08-05T12:17:13;1.50;;;0.98;;
44728;SDS011;30457;53.590;9.922;2022-08-05T12:26:10;1.17;;;1.00;;
44728;SDS011;30457;53.590;9.922;2022-08-05T12:30:37;2.13;;;0.70;;
44728;SDS011;30457;53.590;9.922;2022-08-05T12:35:02;2.28;;;0.93;;
44728;SDS011;30457;53.590;9.922;2022-08-05T12:39:29;2.25;;;1.10;;
44728;SDS011;30457;53.590;9.922;2022-08-05T12:43:58;1.30;;;0.77;;
44728;SDS011;30457;53.590;9.922;2022-08-05T12:48:36;4.10;;;1.00;;
44728;SDS011;30457;53.590;9.922;2022-08-05T12:53:02;2.85;;;1.13;;
44728;SDS011;30457;53.590;9.922;2022-08-05T12:57:34;1.10;;;1.00;;
44728;SDS011;30457;53.590;9.922;2022-08-05T13:02:04;1.83;;;1.00;;
44728;SDS011;30457;53.590;9.922;2022-08-05T13:06:31;4.80;;;2.65;;
44728;SDS011;30457;53.590;9.922;2022-08-05T13:11:00;1.80;;;0.90;;
44728;SDS011;30457;53.590;9.922;2022-08-05T13:15:29;1.85;;;0.88;;
44728;SDS011;30457;53.590;9.922;2022-08-05T13:20:05;2.30;;;1.13;;
44728;SDS011;30457;53.590;9.922;2022-08-05T13:24:32;2.72;;;0.70;;
44728;SDS011;30457;53.590;9.922;2022-08-05T13:28:57;2.80;;;0.80;;
44728;SDS011;30457;53.590;9.922;2022-08-05T13:33:23;1.30;;;0.80;;
44728;SDS011;30457;53.590;9.922;2022-08-05T13:37:49;1.45;;;0.80;;
44728;SDS011;30457;53.590;9.922;2022-08-05T13:42:14;1.50;;;0.90;;
44728;SDS011;30457;53.590;9.922;2022-08-05T13:46:40;1.75;;;0.98;;
44728;SDS011;30457;53.590;9.922;2022-08-05T13:51:07;5.63;;;1.33;;
44728;SDS011;30457;53.590;9.922;2022-08-05T13:55:33;2.80;;;1.73;;
44728;SDS011;30457;53.590;9.922;2022-08-05T13:59:59;1.98;;;1.73;;
44728;SDS011;30457;53.590;9.922;2022-08-05T14:04:34;1.90;;;1.00;;
44728;SDS011;30457;53.590;9.922;2022-08-05T14:09:20;2.42;;;1.00;;
44728;SDS011;30457;53.590;9.922;2022-08-05T14:13:45;1.83;;;0.75;;
44728;SDS011;30457;53.590;9.922;2022-08-05T14:18:11;1.45;;;0.90;;
44728;SDS011;30457;53.590;9.922;2022-08-05T14:22:37;4.15;;;1.10;;
44728;SDS011;30457;53.590;9.922;2022-08-05T14:27:02;2.15;;;1.15;;
44728;SDS011;30457;53.590;9.922;2022-08-05T14:31:28;2.95;;;1.10;;
44728;SDS011;30457;53.590;9.922;2022-08-05T14:35:54;2.05;;;0.90;;
44728;SDS011;30457;53.590;9.922;2022-08-05T14:40:20;2.85;;;1.13;;
44728;SDS011;30457;53.590;9.922;2022-08-05T14:44:45;2.58;;;1.30;;
44728;SDS011;30457;53.590;9.922;2022-08-05T14:49:11;1.73;;;0.80;;
44728;SDS011;30457;53.590;9.922;2022-08-05T14:53:36;11.20;;;1.80;;
44728;SDS011;30457;53.590;9.922;2022-08-05T14:58:02;3.08;;;0.95;;
44728;SDS011;30457;53.590;9.922;2022-08-05T15:02:27;2.33;;;1.30;;
44728;SDS011;30457;53.590;9.922;2022-08-05T15:06:53;2.97;;;1.30;;
44728;SDS011;30457;53.590;9.922;2022-08-05T15:11:18;1.88;;;1.15;;
44728;SDS011;30457;53.590;9.922;2022-08-05T15:15:44;21.08;;;1.77;;
44728;SDS011;30457;53.590;9.922;2022-08-05T15:20:11;1.90;;;1.35;;
44728;SDS011;30457;53.590;9.922;2022-08-05T15:24:37;2.42;;;1.17;;
44728;SDS011;30457;53.590;9.922;2022-08-05T15:29:02;2.55;;;1.50;;
44728;SDS011;30457;53.590;9.922;2022-08-05T15:33:28;4.43;;;1.45;;
44728;SDS011;30457;53.590;9.922;2022-08-05T15:37:53;1.98;;;1.20;;
44728;SDS011;30457;53.590;9.922;2022-08-05T15:42:19;2.85;;;1.15;;
44728;SDS011;30457;53.590;9.922;2022-08-05T15:46:44;2.40;;;1.10;;
44728;SDS011;30457;53.590;9.922;2022-08-05T15:51:10;2.65;;;0.82;;
44728;SDS011;30457;53.590;9.922;2022-08-05T15:55:36;2.72;;;0.88;;
44728;SDS011;30457;53.590;9.922;2022-08-05T16:00:04;1.75;;;0.80;;
44728;SDS011;30457;53.590;9.922;2022-08-05T16:04:31;1.27;;;0.65;;
44728;SDS011;30457;53.590;9.922;2022-08-05T16:08:56;1.75;;;0.60;;
44728;SDS011;30457;53.590;9.922;2022-08-05T16:13:22;1.77;;;0.80;;
44728;SDS011;30457;53.590;9.922;2022-08-05T16:17:47;2.25;;;0.70;;
44728;SDS011;30457;53.590;9.922;2022-08-05T16:22:14;1.95;;;0.98;;
44728;SDS011;30457;53.590;9.922;2022-08-05T16:26:53;1.17;;;0.50;;
44728;SDS011;30457;53.590;9.922;2022-08-05T16:31:22;2.05;;;0.40;;
44728;SDS011;30457;53.590;9.922;2022-08-05T16:35:48;3.45;;;0.85;;
44728;SDS011;30457;53.590;9.922;2022-08-05T16:40:13;0.95;;;0.70;;
44728;SDS011;30457;53.590;9.922;2022-08-05T16:44:39;0.88;;;0.50;;
44728;SDS011;30457;53.590;9.922;2022-08-05T16:49:05;0.50;;;0.50;;
44728;SDS011;30457;53.590;9.922;2022-08-05T16:53:31;1.25;;;0.55;;
44728;SDS011;30457;53.590;9.922;2022-08-05T16:57:57;1.10;;;0.52;;
44728;SDS011;30457;53.590;9.922;2022-08-05T17:02:23;0.90;;;0.57;;
44728;SDS011;30457;53.590;9.922;2022-08-05T17:06:48;1.13;;;0.50;;
44728;SDS011;30457;53.590;9.922;2022-08-05T17:11:14;0.85;;;0.50;;
44728;SDS011;30457;53.590;9.922;2022-08-05T17:15:40;1.83;;;0.50;;
44728;SDS011;30457;53.590;9.922;2022-08-05T17:20:06;0.70;;;0.40;;
44728;SDS011;30457;53.590;9.922;2022-08-05T17:24:33;2.15;;;0.40;;
44728;SDS011;30457;53.590;9.922;2022-08-05T17:28:59;2.42;;;0.50;;
44728;SDS011;30457;53.590;9.922;2022-08-05T17:33:25;4.40;;;1.65;;
44728;SDS011;30457;53.590;9.922;2022-08-05T17:37:50;1.45;;;0.98;;
44728;SDS011;30457;53.590;9.922;2022-08-05T17:42:16;0.40;;;0.30;;
44728;SDS011;30457;53.590;9.922;2022-08-05T17:46:41;1.13;;;0.40;;
44728;SDS011;30457;53.590;9.922;2022-08-05T17:51:07;1.35;;;0.47;;
44728;SDS011;30457;53.590;9.922;2022-08-05T17:55:32;1.25;;;0.30;;
44728;SDS011;30457;53.590;9.922;2022-08-05T17:59:58;0.47;;;0.30;;
44728;SDS011;30457;53.590;9.922;2022-08-05T18:04:23;1.40;;;0.82;;
44728;SDS011;30457;53.590;9.922;2022-08-05T18:08:49;0.50;;;0.30;;
44728;SDS011;30457;53.590;9.922;2022-08-05T18:13:15;3.63;;;0.30;;
44728;SDS011;30457;53.590;9.922;2022-08-05T18:17:40;0.65;;;0.20;;
44728;SDS011;30457;53.590;9.922;2022-08-05T18:22:06;0.40;;;0.25;;
44728;SDS011;30457;53.590;9.922;2022-08-05T18:26:31;1.90;;;0.30;;
44728;SDS011;30457;53.590;9.922;2022-08-05T18:30:57;0.45;;;0.28;;
44728;SDS011;30457;53.590;9.922;2022-08-05T18:35:22;0.88;;;0.50;;
44728;SDS011;30457;53.590;9.922;2022-08-05T18:39:48;1.95;;;0.30;;
44728;SDS011;30457;53.590;9.922;2022-08-05T18:44:15;1.23;;;0.40;;
44728;SDS011;30457;53.590;9.922;2022-08-05T18:48:41;1.88;;;0.40;;
44728;SDS011;30457;53.590;9.922;2022-08-05T18:53:06;4.30;;;0.40;;
44728;SDS011;30457;53.590;9.922;2022-08-05T18:57:32;0.50;;;0.40;;
44728;SDS011;30457;53.590;9.922;2022-08-05T19:01:58;1.55;;;0.43;;
44728;SDS011;30457;53.590;9.922;2022-08-05T19:06:23;1.45;;;0.30;;
44728;SDS011;30457;53.590;9.922;2022-08-05T19:10:49;1.08;;;0.30;;
44728;SDS011;30457;53.590;9.922;2022-08-05T19:15:14;0.98;;;0.32;;
44728;SDS011;30457;53.590;9.922;2022-08-05T19:19:43;1.27;;;0.40;;
44728;SDS011;30457;53.590;9.922;2022-08-05T19:24:09;0.52;;;0.30;;
44728;SDS011;30457;53.590;9.922;2022-08-05T19:28:38;0.28;;;0.28;;
44728;SDS011;30457;53.590;9.922;2022-08-05T19:33:05;0.57;;;0.30;;
44728;SDS011;30457;53.590;9.922;2022-08-05T19:37:31;0.43;;;0.40;;
44728;SDS011;30457;53.590;9.922;2022-08-05T19:41:57;0.52;;;0.40;;
44728;SDS011;30457;53.590;9.922;2022-08-05T19:46:22;0.65;;;0.30;;
44728;SDS011;30457;53.590;9.922;2022-08-05T19:50:48;8.90;;;0.90;;
44728;SDS011;30457;53.590;9.922;2022-08-05T19:55:13;0.35;;;0.35;;
44728;SDS011;30457;53.590;9.922;2022-08-05T19:59:39;0.98;;;0.30;;
44728;SDS011;30457;53.590;9.922;2022-08-05T20:04:04;1.30;;;0.40;;
44728;SDS011;30457;53.590;9.922;2022-08-05T20:08:30;0.20;;;0.20;;
44728;SDS011;30457;53.590;9.922;2022-08-05T20:12:56;1.05;;;0.50;;
44728;SDS011;30457;53.590;9.922;2022-08-05T20:17:21;1.77;;;0.50;;
44728;SDS011;30457;53.590;9.922;2022-08-05T20:21:47;0.57;;;0.40;;
44728;SDS011;30457;53.590;9.922;2022-08-05T20:26:13;1.15;;;0.50;;
44728;SDS011;30457;53.590;9.922;2022-08-05T20:30:38;1.67;;;0.43;;
44728;SDS011;30457;53.590;9.922;2022-08-05T20:35:04;0.47;;;0.47;;
44728;SDS011;30457;53.590;9.922;2022-08-05T20:39:30;1.30;;;0.82;;
44728;SDS011;30457;53.590;9.922;2022-08-05T20:43:56;1.45;;;0.95;;
44728;SDS011;30457;53.590;9.922;2022-08-05T20:48:21;1.52;;;0.75;;
44728;SDS011;30457;53.590;9.922;2022-08-05T20:52:47;1.10;;;0.65;;
44728;SDS011;30457;53.590;9.922;2022-08-05T20:57:13;0.68;;;0.40;;
44728;SDS011;30457;53.590;9.922;2022-08-05T21:01:39;4.93;;;1.70;;
44728;SDS011;30457;53.590;9.922;2022-08-05T21:06:05;0.68;;;0.50;;
44728;SDS011;30457;53.590;9.922;2022-08-05T21:10:31;2.05;;;0.30;;
44728;SDS011;30457;53.590;9.922;2022-08-05T21:14:57;1.00;;;0.60;;
44728;SDS011;30457;53.590;9.922;2022-08-05T21:19:22;1.25;;;0.40;;
44728;SDS011;30457;53.590;9.922;2022-08-05T21:23:49;0.40;;;0.40;;
44728;SDS011;30457;53.590;9.922;2022-08-05T21:28:14;3.78;;;0.85;;
44728;SDS011;30457;53.590;9.922;2022-08-05T21:32:40;1.33;;;0.50;;
44728;SDS011;30457;53.590;9.922;2022-08-05T21:37:06;0.65;;;0.40;;
44728;SDS011;30457;53.590;9.922;2022-08-05T21:41:34;0.30;;;0.30;;
44728;SDS011;30457;53.590;9.922;2022-08-05T21:46:00;5.88;;;0.80;;
44728;SDS011;30457;53.590;9.922;2022-08-05T21:50:25;1.70;;;0.63;;
44728;SDS011;30457;53.590;9.922;2022-08-05T21:54:51;1.08;;;0.60;;
44728;SDS011;30457;53.590;9.922;2022-08-05T21:59:16;0.55;;;0.40;;
44728;SDS011;30457;53.590;9.922;2022-08-05T22:03:42;3.70;;;0.65;;
44728;SDS011;30457;53.590;9.922;2022-08-05T22:08:08;2.47;;;0.57;;
44728;SDS011;30457;53.590;9.922;2022-08-05T22:12:34;1.10;;;0.50;;
44728;SDS011;30457;53.590;9.922;2022-08-05T22:17:03;0.55;;;0.50;;
44728;SDS011;30457;53.590;9.922;2022-08-05T22:21:29;7.18;;;0.88;;
44728;SDS011;30457;53.590;9.922;2022-08-05T22:25:55;3.45;;;0.70;;
44728;SDS011;30457;53.590;9.922;2022-08-05T22:30:40;2.10;;;0.50;;
44728;SDS011;30457;53.590;9.922;2022-08-05T22:35:06;1.17;;;0.60;;
44728;SDS011;30457;53.590;9.922;2022-08-05T22:39:33;3.70;;;0.63;;
44728;SDS011;30457;53.590;9.922;2022-08-05T22:43:58;2.45;;;0.63;;
44728;SDS011;30457;53.590;9.922;2022-08-05T22:48:24;3.47;;;0.65;;
44728;SDS011;30457;53.590;9.922;2022-08-05T22:52:50;1.10;;;0.40;;
44728;SDS011;30457;53.590;9.922;2022-08-05T22:57:15;2.97;;;0.60;;
44728;SDS011;30457;53.590;9.922;2022-08-05T23:01:41;1.00;;;0.60;;
44728;SDS011;30457;53.590;9.922;2022-08-05T23:06:06;0.70;;;0.52;;
44728;SDS011;30457;53.590;9.922;2022-08-05T23:10:32;3.47;;;0.50;;
44728;SDS011;30457;53.590;9.922;2022-08-05T23:14:58;0.85;;;0.60;;
44728;SDS011;30457;53.590;9.922;2022-08-05T23:19:24;5.18;;;0.75;;
44728;SDS011;30457;53.590;9.922;2022-08-05T23:23:49;1.00;;;0.50;;
44728;SDS011;30457;53.590;9.922;2022-08-05T23:28:15;0.50;;;0.50;;
44728;SDS011;30457;53.590;9.922;2022-08-05T23:32:40;2.90;;;0.50;;
44728;SDS011;30457;53.590;9.922;2022-08-05T23:37:06;0.85;;;0.52;;
44728;SDS011;30457;53.590;9.922;2022-08-05T23:41:32;1.65;;;0.43;;
44728;SDS011;30457;53.590;9.922;2022-08-05T23:45:57;1.33;;;0.88;;
44728;SDS011;30457;53.590;9.922;2022-08-05T23:50:23;0.60;;;0.50;;
44728;SDS011;30457;53.590;9.922;2022-08-05T23:54:48;0.90;;;0.50;;
44728;SDS011;30457;53.590;9.922;2022-08-05T23:59:14;1.75;;;0.40;;
